LOWG/GRZ METAR and TAF weather

Enter ICAO airport designator
Station Type Date Time Source
LOWG METAR 2019/04/25 09:50 UTC NOAA

LOWG 250950Z VRB04KT 9999 FEW050 22/06 Q1015 NOSIG


Station Type Date Time Source
LOWG Decoded METAR 2019/04/25 09:50 UTC NOAA

Graz-Thalerhof-Flughafen, Austria (LOWG) 47-00N 015-26E 347M
Apr 25, 2019 - 05:50 AM EDT / 2019.04.25 0950 UTC
Wind: Variable at 5 MPH (4 KT):0
Visibility: greater than 7 mile(s):0
Sky conditions: mostly clear
Temperature: 71 F (22 C)
Dew Point: 42 F (6 C)
Relative Humidity: 35%
Pressure (altimeter): 29.97 in. Hg (1015 hPa)
ob: LOWG 250950Z VRB04KT 9999 FEW050 22/06 Q1015 NOSIG
cycle: 10

Station Type Date Time Source
LOWG TAF 2019/04/25 06:18 UTC NOAA

TAF TAF LOWG 250515Z 2506/2606 VRB02KT 9999 FEW050 SCT300 TX24/2513Z TN11/2604Z
BECMG 2507/2509 18006KT
TEMPO 2510/2517 20010KT

Example: see airport list